createdAt,value
2018-07-15T00:01:56.973Z,0
2018-07-15T00:02:36.570Z,0
2018-07-15T00:03:16.994Z,0
2018-07-15T00:03:57.395Z,0
2018-07-15T00:04:37.793Z,0
2018-07-15T00:05:18.213Z,0
2018-07-15T00:05:58.678Z,0
2018-07-15T00:06:39.064Z,0
2018-07-15T00:07:19.492Z,0
2018-07-15T00:07:59.919Z,0
2018-07-15T00:08:40.324Z,0
2018-07-15T00:11:15.040Z,0
2018-07-15T00:11:57.872Z,0
2018-07-15T00:12:38.267Z,0
2018-07-15T00:13:18.681Z,0
2018-07-15T00:13:59.099Z,0
2018-07-15T00:14:39.517Z,0
2018-07-15T00:15:19.937Z,0
2018-07-15T00:16:00.311Z,0
2018-07-15T00:16:40.719Z,0
2018-07-15T00:18:58.152Z,0
2018-07-15T00:21:36.541Z,0
2018-07-15T00:22:16.966Z,0
2018-07-15T00:22:57.376Z,0
2018-07-15T00:23:37.771Z,0
2018-07-15T00:24:18.207Z,0
2018-07-15T00:24:58.634Z,0
2018-07-15T00:25:39.067Z,0
2018-07-15T00:26:19.528Z,0
2018-07-15T00:26:59.884Z,0
2018-07-15T00:27:40.346Z,0
2018-07-15T00:28:20.728Z,0
2018-07-15T00:29:01.159Z,0
2018-07-15T00:29:41.577Z,0
2018-07-15T00:30:21.971Z,0
2018-07-15T00:32:35.158Z,0
2018-07-15T00:33:15.539Z,0
2018-07-15T00:33:55.957Z,0
2018-07-15T00:34:36.362Z,0
2018-07-15T00:35:16.774Z,0
2018-07-15T00:35:57.185Z,0
2018-07-15T00:36:37.608Z,0
2018-07-15T00:37:18.009Z,0
2018-07-15T00:37:58.418Z,0
2018-07-15T00:38:38.810Z,0
2018-07-15T00:39:19.233Z,0
2018-07-15T00:39:59.599Z,0
2018-07-15T00:40:40.027Z,0
2018-07-15T00:43:19.131Z,0
2018-07-15T00:43:59.507Z,0
2018-07-15T00:44:39.893Z,0
2018-07-15T00:45:20.320Z,0
2018-07-15T00:47:58.745Z,0
2018-07-15T00:48:39.138Z,0
2018-07-15T00:49:19.608Z,0
2018-07-15T00:51:58.535Z,0
2018-07-15T00:52:38.966Z,0
2018-07-15T00:53:19.366Z,0
2018-07-15T00:53:59.783Z,0
2018-07-15T00:54:40.176Z,0
2018-07-15T00:55:20.623Z,0
2018-07-15T00:56:00.999Z,0
2018-07-15T00:56:41.466Z,0
2018-07-15T00:57:21.864Z,0
2018-07-15T00:58:02.282Z,0
2018-07-15T00:58:42.817Z,0
2018-07-15T00:59:23.051Z,0
2018-07-15T01:00:03.478Z,0
2018-07-15T01:00:43.913Z,0
2018-07-15T01:01:24.306Z,0
2018-07-15T01:02:04.774Z,0
2018-07-15T01:02:45.152Z,0
2018-07-15T01:03:25.532Z,0
2018-07-15T01:04:05.965Z,0
2018-07-15T01:04:46.328Z,0
2018-07-15T01:05:26.732Z,0
2018-07-15T01:06:07.164Z,0
2018-07-15T01:08:28.014Z,0
2018-07-15T01:09:06.726Z,0
2018-07-15T01:09:47.123Z,0
2018-07-15T01:10:27.563Z,0
2018-07-15T01:11:07.932Z,0
2018-07-15T01:11:48.348Z,0
2018-07-15T01:12:28.768Z,0
2018-07-15T01:13:09.164Z,0
2018-07-15T01:13:49.588Z,0
2018-07-15T01:14:29.996Z,0
2018-07-15T01:15:10.421Z,0
2018-07-15T01:15:50.862Z,0
2018-07-15T01:16:31.240Z,0
2018-07-15T01:17:11.674Z,0
2018-07-15T01:17:52.069Z,0
2018-07-15T01:18:32.490Z,0
2018-07-15T01:19:12.910Z,0
2018-07-15T01:19:53.313Z,0
2018-07-15T01:20:33.709Z,0
2018-07-15T01:21:14.129Z,0
2018-07-15T01:21:54.553Z,0
2018-07-15T01:22:34.952Z,0
2018-07-15T01:23:15.368Z,0
2018-07-15T01:23:55.784Z,0
2018-07-15T01:24:36.213Z,0
2018-07-15T01:25:16.625Z,0
2018-07-15T01:25:57.047Z,0
2018-07-15T01:26:37.484Z,0
2018-07-15T01:27:17.843Z,0
2018-07-15T01:27:58.231Z,0
2018-07-15T01:30:42.340Z,0
2018-07-15T01:31:18.019Z,0
2018-07-15T01:31:58.440Z,0
2018-07-15T01:32:38.854Z,0
2018-07-15T01:33:19.292Z,0
2018-07-15T01:33:59.677Z,0
2018-07-15T01:34:40.080Z,0
2018-07-15T01:35:20.507Z,0
2018-07-15T01:36:00.930Z,0
2018-07-15T01:36:41.349Z,0
2018-07-15T01:37:21.760Z,0
2018-07-15T01:38:02.199Z,0
2018-07-15T01:38:42.582Z,0
2018-07-15T01:39:23.019Z,0
2018-07-15T01:40:03.427Z,0
2018-07-15T01:40:43.814Z,0
2018-07-15T01:41:24.207Z,0
2018-07-15T01:42:04.599Z,0
2018-07-15T01:42:45.037Z,0
2018-07-15T01:43:25.429Z,0
2018-07-15T01:44:05.866Z,0
2018-07-15T01:44:46.240Z,0
2018-07-15T01:45:26.660Z,0
2018-07-15T01:46:07.075Z,0
2018-07-15T01:46:47.488Z,0
2018-07-15T01:47:27.931Z,0
2018-07-15T01:48:08.307Z,0
2018-07-15T01:48:48.727Z,0
2018-07-15T01:49:29.174Z,0
2018-07-15T01:50:09.599Z,0
2018-07-15T01:50:50.010Z,0
2018-07-15T01:51:30.455Z,0
2018-07-15T01:52:10.857Z,0
2018-07-15T01:52:51.250Z,0
2018-07-15T01:53:31.664Z,0
2018-07-15T01:54:12.066Z,0
2018-07-15T01:54:52.451Z,0
2018-07-15T01:55:32.876Z,0
2018-07-15T01:56:13.291Z,0
2018-07-15T01:56:53.685Z,0
2018-07-15T01:57:34.045Z,0
2018-07-15T01:58:14.495Z,0
2018-07-15T01:58:54.909Z,0
2018-07-15T01:59:35.332Z,0
2018-07-15T02:00:15.739Z,0
2018-07-15T02:00:56.185Z,0
2018-07-15T02:01:36.610Z,0
2018-07-15T02:02:17.048Z,0
2018-07-15T02:02:57.429Z,0
2018-07-15T02:03:37.851Z,0
2018-07-15T02:04:18.267Z,0
2018-07-15T02:04:58.647Z,0
2018-07-15T02:07:41.434Z,0
2018-07-15T02:08:20.821Z,0
2018-07-15T02:11:01.464Z,0
2018-07-15T02:11:41.867Z,0
2018-07-15T02:12:22.274Z,0
2018-07-15T02:13:02.698Z,0
2018-07-15T02:13:43.069Z,0
2018-07-15T02:14:23.514Z,0
2018-07-15T02:15:03.882Z,0
2018-07-15T02:15:44.282Z,0
2018-07-15T02:16:24.696Z,0
2018-07-15T02:17:05.175Z,0
2018-07-15T02:17:45.505Z,0
2018-07-15T02:18:25.924Z,0
2018-07-15T02:19:06.370Z,0
2018-07-15T02:19:46.734Z,0
2018-07-15T02:20:27.221Z,0
2018-07-15T02:21:07.601Z,0
2018-07-15T02:21:47.953Z,0
2018-07-15T02:22:28.378Z,0
2018-07-15T02:23:08.782Z,0
2018-07-15T02:23:49.190Z,0
2018-07-15T02:24:29.616Z,0
2018-07-15T02:25:10.023Z,0
2018-07-15T02:25:50.430Z,0
2018-07-15T02:26:30.835Z,0
2018-07-15T02:27:11.254Z,0
2018-07-15T02:27:51.665Z,0
2018-07-15T02:28:32.038Z,0
2018-07-15T02:29:12.439Z,0
2018-07-15T02:29:52.875Z,0
2018-07-15T02:30:33.307Z,0
2018-07-15T02:31:13.727Z,0
2018-07-15T02:31:54.119Z,0
2018-07-15T02:36:21.753Z,0
2018-07-15T02:36:58.448Z,0
2018-07-15T02:37:38.893Z,0
2018-07-15T02:38:19.309Z,0
2018-07-15T02:38:59.689Z,0
2018-07-15T02:39:40.089Z,0
2018-07-15T02:40:20.490Z,0
2018-07-15T02:41:00.894Z,0
2018-07-15T02:41:41.309Z,0
2018-07-15T02:47:27.856Z,0
2018-07-15T02:48:08.261Z,0
2018-07-15T02:48:48.649Z,0
2018-07-15T02:49:29.064Z,0
2018-07-15T02:50:09.477Z,0
2018-07-15T02:50:49.899Z,0
2018-07-15T02:51:30.336Z,0
2018-07-15T02:52:10.739Z,0
2018-07-15T02:52:51.145Z,0
2018-07-15T02:53:31.575Z,0
2018-07-15T02:54:12.044Z,0
2018-07-15T02:54:52.386Z,0
2018-07-15T02:55:32.720Z,0
2018-07-15T02:56:13.161Z,0
2018-07-15T02:56:53.562Z,0
2018-07-15T02:57:33.966Z,0
2018-07-15T02:58:14.386Z,0
2018-07-15T02:58:54.781Z,0
2018-07-15T02:59:35.239Z,0
2018-07-15T03:00:15.663Z,0
2018-07-15T03:00:56.077Z,0
2018-07-15T03:01:36.472Z,0
2018-07-15T03:02:16.886Z,0
2018-07-15T03:02:57.292Z,0
2018-07-15T03:03:37.700Z,0
2018-07-15T03:04:18.147Z,0
2018-07-15T03:04:58.497Z,0
2018-07-15T03:05:38.932Z,0
2018-07-15T03:06:19.331Z,0
2018-07-15T03:06:59.743Z,0
2018-07-15T03:07:40.141Z,0
2018-07-15T03:08:20.609Z,0
2018-07-15T03:09:00.963Z,0
2018-07-15T03:09:41.419Z,0
2018-07-15T03:10:21.828Z,0
2018-07-15T03:11:02.240Z,0
2018-07-15T03:11:42.647Z,0
2018-07-15T03:12:23.038Z,0
2018-07-15T03:14:51.350Z,0
2018-07-15T03:15:31.604Z,0
2018-07-15T03:16:12.036Z,0
2018-07-15T03:16:52.452Z,0
2018-07-15T03:17:32.856Z,0
2018-07-15T03:18:13.233Z,0
2018-07-15T03:18:53.674Z,0
2018-07-15T03:19:34.047Z,0
2018-07-15T03:20:14.513Z,0
2018-07-15T03:20:54.885Z,0
2018-07-15T03:21:35.274Z,0
2018-07-15T03:22:15.696Z,0
2018-07-15T03:22:56.109Z,0
2018-07-15T03:23:36.491Z,0
2018-07-15T03:24:16.926Z,0
2018-07-15T03:24:57.332Z,0
2018-07-15T03:25:37.744Z,0
2018-07-15T03:26:18.139Z,0
2018-07-15T03:26:58.543Z,0
2018-07-15T03:27:38.940Z,0
2018-07-15T03:28:19.362Z,0
2018-07-15T03:28:59.759Z,0
2018-07-15T03:29:40.199Z,0
2018-07-15T03:30:20.624Z,0
2018-07-15T03:31:00.959Z,0
2018-07-15T03:31:41.379Z,0
2018-07-15T03:32:21.804Z,0
2018-07-15T03:33:02.237Z,0
2018-07-15T03:33:42.661Z,0
2018-07-15T03:34:23.056Z,0
2018-07-15T03:35:03.455Z,0
2018-07-15T03:35:43.871Z,0
2018-07-15T03:36:24.328Z,0
2018-07-15T03:37:04.718Z,0
2018-07-15T03:37:45.132Z,0
2018-07-15T03:38:25.547Z,0
2018-07-15T03:39:05.966Z,0
2018-07-15T03:39:46.427Z,0
2018-07-15T03:40:26.822Z,0
2018-07-15T03:41:07.192Z,0
2018-07-15T03:41:47.617Z,0
2018-07-15T03:44:18.755Z,0
2018-07-15T03:44:59.152Z,0
2018-07-15T03:45:39.567Z,0
2018-07-15T03:46:19.966Z,5
2018-07-15T03:47:00.391Z,5
2018-07-15T03:47:40.763Z,5
2018-07-15T03:48:21.124Z,5
2018-07-15T03:49:01.560Z,5
2018-07-15T03:49:42.023Z,5
2018-07-15T03:50:22.336Z,5
2018-07-15T03:52:58.677Z,5
2018-07-15T03:53:38.075Z,5
2018-07-15T03:54:18.470Z,5
2018-07-15T03:54:58.858Z,5
2018-07-15T03:55:39.314Z,5
2018-07-15T03:56:20.137Z,5
2018-07-15T03:57:00.650Z,5
2018-07-15T03:57:41.051Z,5
2018-07-15T03:58:21.719Z,10
2018-07-15T03:59:01.836Z,10
2018-07-15T03:59:42.245Z,10
2018-07-15T04:00:22.639Z,10
2018-07-15T04:01:03.077Z,10
2018-07-15T04:01:43.424Z,10
2018-07-15T04:02:23.841Z,10
2018-07-15T04:03:04.271Z,10
2018-07-15T04:03:44.725Z,10
2018-07-15T04:04:25.049Z,10
2018-07-15T04:43:18.594Z,85
2018-07-15T04:44:03.671Z,85
2018-07-15T04:44:44.090Z,85
2018-07-15T04:45:24.600Z,90
2018-07-15T04:46:04.943Z,90
2018-07-15T04:46:45.356Z,90
2018-07-15T04:47:25.753Z,90
2018-07-15T04:48:06.208Z,95
2018-07-15T04:48:46.570Z,95
2018-07-15T04:49:27.016Z,100
2018-07-15T04:50:07.408Z,100
2018-07-15T04:50:47.820Z,100
2018-07-15T04:51:28.240Z,100
2018-07-15T04:52:08.723Z,105
2018-07-15T04:52:49.156Z,105
2018-07-15T04:53:30.167Z,105
2018-07-15T04:54:11.588Z,105
2018-07-15T04:54:52.053Z,105
2018-07-15T04:55:34.865Z,110
2018-07-15T04:56:17.121Z,115
2018-07-15T04:58:25.972Z,125
2018-07-15T04:59:06.531Z,125
2018-07-15T04:59:46.935Z,125
2018-07-15T05:00:27.342Z,130
2018-07-15T05:01:07.769Z,130
2018-07-15T05:01:48.234Z,135
2018-07-15T05:02:28.557Z,140
2018-07-15T05:03:08.962Z,140
2018-07-15T05:03:49.383Z,145
2018-07-15T05:04:29.799Z,145
2018-07-15T05:05:10.176Z,145
2018-07-15T05:05:50.590Z,150
2018-07-15T05:06:31.041Z,150
2018-07-15T05:07:11.401Z,155
2018-07-15T05:09:24.300Z,160
2018-07-15T05:10:04.682Z,165
2018-07-15T05:10:45.127Z,165
2018-07-15T05:11:25.562Z,170
2018-07-15T05:13:59.917Z,175
2018-07-15T05:14:40.280Z,185
2018-07-15T05:15:20.698Z,185
2018-07-15T05:16:01.132Z,190
2018-07-15T05:16:41.534Z,195
2018-07-15T05:17:21.936Z,200
2018-07-15T05:18:02.388Z,205
2018-07-15T05:18:42.743Z,205
2018-07-15T05:19:23.161Z,210
2018-07-15T05:20:03.609Z,205
2018-07-15T05:20:43.982Z,200
2018-07-15T05:21:24.402Z,195
2018-07-15T05:22:04.853Z,200
2018-07-15T05:22:45.216Z,205
2018-07-15T05:23:25.617Z,205
2018-07-15T05:24:06.097Z,205
2018-07-15T05:24:46.458Z,205
2018-07-15T05:25:26.896Z,210
2018-07-15T05:26:07.318Z,210
2018-07-15T05:26:47.764Z,210
2018-07-15T05:27:28.155Z,210
2018-07-15T05:28:08.584Z,210
2018-07-15T05:28:48.990Z,210
2018-07-15T05:29:29.396Z,215
2018-07-15T05:41:56.000Z,265
2018-07-15T05:49:36.639Z,285
2018-07-15T05:50:17.027Z,285
2018-07-15T05:50:57.433Z,285
2018-07-15T05:51:37.855Z,290
2018-07-15T05:52:18.286Z,295
2018-07-15T05:52:58.765Z,295
2018-07-15T05:53:39.127Z,295
2018-07-15T05:54:19.552Z,295
2018-07-15T05:54:59.991Z,300
2018-07-15T05:55:40.379Z,300
2018-07-15T05:56:20.788Z,310
2018-07-15T05:57:01.231Z,315
2018-07-15T05:57:41.616Z,315
2018-07-15T05:58:22.047Z,320
2018-07-15T05:59:02.473Z,320
2018-07-15T05:59:42.905Z,325
2018-07-15T06:02:17.378Z,340
2018-07-15T06:02:56.642Z,345
2018-07-15T06:03:37.095Z,355
2018-07-15T06:04:17.452Z,355
2018-07-15T06:04:57.870Z,360
2018-07-15T06:05:38.286Z,370
2018-07-15T06:06:18.725Z,375
2018-07-15T06:06:59.155Z,370
2018-07-15T06:07:39.600Z,380
2018-07-15T06:08:19.982Z,390
2018-07-15T06:09:00.408Z,400
2018-07-15T06:09:40.817Z,415
2018-07-15T06:10:21.258Z,425
2018-07-15T06:11:01.658Z,440
2018-07-15T06:11:42.058Z,460
2018-07-15T06:12:22.493Z,470
2018-07-15T06:13:02.900Z,485
2018-07-15T06:13:43.297Z,500
2018-07-15T06:14:23.703Z,525
2018-07-15T06:15:04.127Z,545
2018-07-15T06:15:46.349Z,560
2018-07-15T06:17:25.157Z,725
2018-07-15T06:18:05.614Z,1050
2018-07-15T06:18:45.957Z,1395
2018-07-15T06:19:26.361Z,1620
2018-07-15T06:20:06.875Z,1615
2018-07-15T06:20:47.286Z,1420
2018-07-15T06:21:27.696Z,1250
2018-07-15T06:22:08.124Z,1105
2018-07-15T06:22:48.660Z,1055
2018-07-15T06:23:28.982Z,1030
2018-07-15T06:24:09.393Z,1000
2018-07-15T06:26:32.080Z,1050
2018-07-15T06:27:12.494Z,1055
2018-07-15T06:27:54.344Z,1060
2018-07-15T06:28:34.950Z,1075
2018-07-15T06:29:15.344Z,1105
2018-07-15T06:29:55.776Z,1125
2018-07-15T06:30:36.161Z,1140
2018-07-15T06:31:16.599Z,1155
2018-07-15T06:31:57.062Z,1145
2018-07-15T06:32:37.523Z,1125
2018-07-15T06:35:49.876Z,1160
2018-07-15T06:36:30.294Z,1165
2018-07-15T06:37:10.736Z,1180
2018-07-15T06:37:51.170Z,1185
2018-07-15T06:38:31.621Z,1190
2018-07-15T06:39:12.015Z,1170
2018-07-15T06:39:52.465Z,1145
2018-07-15T06:40:32.859Z,1150
2018-07-15T06:41:17.434Z,1130
2018-07-15T06:41:59.294Z,1115
2018-07-15T06:42:39.602Z,1135
2018-07-15T06:43:20.155Z,1180
2018-07-15T06:44:00.460Z,1195
2018-07-15T06:44:44.300Z,1195
2018-07-15T06:45:32.500Z,1215
2018-07-15T06:46:13.414Z,1240
2018-07-15T06:46:53.505Z,1245
2018-07-15T06:47:33.915Z,1260
2018-07-15T06:48:14.395Z,1275
2018-07-15T06:48:54.772Z,1260
2018-07-15T06:49:35.180Z,1235
2018-07-15T06:50:15.611Z,1235
2018-07-15T06:50:56.080Z,1260
2018-07-15T06:51:36.514Z,1310
2018-07-15T06:52:16.938Z,1360
2018-07-15T06:52:57.453Z,1370
2018-07-15T06:53:38.468Z,1320
2018-07-15T06:54:19.602Z,1070
2018-07-15T06:56:28.144Z,580
2018-07-15T06:57:08.644Z,590
2018-07-15T06:57:49.004Z,605
2018-07-15T06:58:29.500Z,605
2018-07-15T06:59:09.889Z,595
2018-07-15T06:59:50.319Z,575
2018-07-15T07:00:30.755Z,555
2018-07-15T07:01:11.186Z,540
2018-07-15T07:01:51.611Z,530
2018-07-15T07:02:32.189Z,530
2018-07-15T07:03:12.941Z,540
2018-07-15T07:03:53.365Z,535
2018-07-15T07:04:33.777Z,540
2018-07-15T07:05:14.820Z,550
2018-07-15T07:05:55.192Z,555
2018-07-15T07:06:35.636Z,555
2018-07-15T07:07:16.161Z,565
2018-07-15T07:07:56.522Z,570
2018-07-15T07:08:36.891Z,580
2018-07-15T07:09:17.301Z,580
2018-07-15T07:09:57.712Z,580
2018-07-15T07:10:38.129Z,575
2018-07-15T07:11:18.583Z,575
2018-07-15T07:11:59.046Z,580
2018-07-15T07:12:39.466Z,590
2018-07-15T07:13:19.917Z,580
2018-07-15T07:14:00.312Z,560
2018-07-15T07:14:40.852Z,550
2018-07-15T07:15:21.151Z,555
2018-07-15T07:16:01.615Z,565
2018-07-15T07:16:41.971Z,575
2018-07-15T07:17:22.374Z,575
2018-07-15T07:18:02.823Z,565
2018-07-15T07:18:43.239Z,565
2018-07-15T07:19:23.673Z,565
2018-07-15T07:20:04.110Z,555
2018-07-15T07:20:44.536Z,550
2018-07-15T07:21:24.960Z,550
2018-07-15T07:22:05.414Z,555
2018-07-15T07:22:45.805Z,555
2018-07-15T07:23:26.229Z,550
2018-07-15T07:24:06.707Z,545
2018-07-15T07:24:47.094Z,545
2018-07-15T07:25:27.502Z,545
2018-07-15T07:26:07.904Z,540
2018-07-15T07:26:48.331Z,535
2018-07-15T07:27:28.755Z,525
2018-07-15T07:28:09.177Z,520
2018-07-15T07:28:49.644Z,520
2018-07-15T07:29:29.984Z,515
2018-07-15T07:30:10.434Z,515
2018-07-15T07:30:50.837Z,535
2018-07-15T07:31:31.244Z,545
2018-07-15T07:32:11.692Z,555
2018-07-15T07:32:52.103Z,545
2018-07-15T07:33:32.524Z,515
2018-07-15T07:34:12.928Z,440
2018-07-15T07:34:53.396Z,360
2018-07-15T07:35:33.885Z,310
2018-07-15T07:36:14.281Z,285
2018-07-15T07:36:54.666Z,270
2018-07-15T07:37:35.086Z,260
2018-07-15T07:38:15.522Z,250
2018-07-15T07:38:55.963Z,240
2018-07-15T07:39:36.376Z,235
2018-07-15T07:40:16.854Z,225
2018-07-15T07:40:57.185Z,225
2018-07-15T07:41:37.663Z,210
2018-07-15T07:42:18.097Z,210
2018-07-15T07:42:58.488Z,210
2018-07-15T07:43:39.265Z,200
2018-07-15T07:44:23.844Z,190
2018-07-15T07:45:04.267Z,185
2018-07-15T07:45:44.721Z,180
2018-07-15T07:46:25.124Z,175
2018-07-15T07:47:05.606Z,170
2018-07-15T07:47:45.953Z,170
2018-07-15T07:48:26.400Z,165
2018-07-15T07:49:06.867Z,160
2018-07-15T07:49:47.261Z,160
2018-07-15T07:50:27.704Z,155
2018-07-15T07:51:08.972Z,150
2018-07-15T07:51:49.417Z,150
2018-07-15T07:52:29.823Z,150
2018-07-15T07:53:10.286Z,150
2018-07-15T07:53:50.655Z,150
2018-07-15T07:54:31.089Z,145
2018-07-15T07:55:11.519Z,145
2018-07-15T07:55:52.012Z,140
2018-07-15T07:56:32.369Z,140
2018-07-15T07:57:12.789Z,140
2018-07-15T07:57:53.279Z,135
2018-07-15T07:58:33.605Z,135
2018-07-15T07:59:14.019Z,135
2018-07-15T07:59:54.510Z,130
2018-07-15T08:00:34.856Z,130
2018-07-15T08:01:15.293Z,130
2018-07-15T08:01:55.779Z,125
2018-07-15T08:02:36.181Z,125
2018-07-15T08:03:16.561Z,125
2018-07-15T08:05:45.673Z,120
2018-07-15T08:06:26.098Z,120
2018-07-15T08:07:06.540Z,120
2018-07-15T08:07:46.985Z,120
2018-07-15T08:08:27.395Z,115
2018-07-15T08:09:07.813Z,115
2018-07-15T08:09:48.252Z,115
2018-07-15T08:10:28.654Z,115
2018-07-15T08:11:09.066Z,115
2018-07-15T08:11:49.451Z,110
2018-07-15T08:14:02.165Z,110
2018-07-15T08:14:42.822Z,110
2018-07-15T08:15:23.363Z,110
2018-07-15T08:16:03.628Z,105
2018-07-15T08:16:44.049Z,105
2018-07-15T08:17:24.498Z,105
2018-07-15T08:18:04.929Z,105
2018-07-15T08:18:45.326Z,105
2018-07-15T08:19:25.751Z,105
2018-07-15T08:20:06.270Z,105
2018-07-15T08:20:46.654Z,105
2018-07-15T08:21:27.051Z,105
2018-07-15T08:22:07.554Z,105
2018-07-15T08:22:47.959Z,105
2018-07-15T08:23:28.369Z,100
2018-07-15T08:24:08.820Z,100
2018-07-15T08:24:49.236Z,100
2018-07-15T08:25:29.675Z,100
2018-07-15T08:26:10.099Z,100
2018-07-15T08:26:50.478Z,100
2018-07-15T08:27:30.929Z,100
2018-07-15T08:28:11.414Z,100
2018-07-15T08:28:51.795Z,100
2018-07-15T08:29:32.220Z,100
2018-07-15T08:30:12.635Z,100
2018-07-15T08:30:53.069Z,100
2018-07-15T08:31:33.479Z,95
2018-07-15T08:32:13.886Z,95
2018-07-15T08:32:54.356Z,95
2018-07-15T08:33:34.730Z,95
2018-07-15T08:34:15.218Z,95
2018-07-15T08:34:55.743Z,95
2018-07-15T08:35:36.067Z,95
2018-07-15T08:36:16.454Z,95
2018-07-15T08:36:56.833Z,95
2018-07-15T08:37:37.329Z,95
2018-07-15T08:38:17.646Z,95
2018-07-15T08:38:58.069Z,95
2018-07-15T08:39:38.541Z,95
2018-07-15T08:40:18.902Z,95
2018-07-15T08:40:59.361Z,90
2018-07-15T08:41:39.752Z,90
2018-07-15T08:42:20.200Z,90
2018-07-15T08:43:00.617Z,90
2018-07-15T08:43:40.986Z,90
2018-07-15T08:44:21.408Z,90
2018-07-15T08:45:01.832Z,90
2018-07-15T08:45:42.256Z,90
2018-07-15T08:46:22.717Z,90
2018-07-15T08:47:03.177Z,90
2018-07-15T08:47:43.638Z,90
2018-07-15T08:48:24.036Z,90
2018-07-15T08:49:04.472Z,90
2018-07-15T08:49:44.904Z,90
2018-07-15T08:50:25.296Z,90
2018-07-15T08:51:05.747Z,90
2018-07-15T08:51:46.145Z,90
2018-07-15T08:52:26.570Z,85
2018-07-15T08:53:07.054Z,85
2018-07-15T08:53:47.502Z,85
2018-07-15T08:54:27.945Z,85
2018-07-15T08:55:08.355Z,85
2018-07-15T08:55:48.781Z,85
2018-07-15T08:56:29.235Z,85
2018-07-15T08:57:09.625Z,85
2018-07-15T08:57:52.956Z,85
2018-07-15T08:58:33.328Z,85
2018-07-15T08:59:25.826Z,85
2018-07-15T09:00:06.253Z,85
2018-07-15T09:00:46.735Z,85
2018-07-15T09:01:27.152Z,85
2018-07-15T09:02:07.860Z,85
2018-07-15T09:02:48.156Z,85
2018-07-15T09:03:28.684Z,85
2018-07-15T09:04:11.946Z,85
2018-07-15T09:04:52.312Z,80
2018-07-15T09:05:32.755Z,80
2018-07-15T09:06:13.189Z,80
2018-07-15T09:06:53.579Z,80
2018-07-15T09:07:34.006Z,80
2018-07-15T09:08:14.418Z,80
2018-07-15T09:08:54.884Z,80
2018-07-15T09:11:29.205Z,80
2018-07-15T09:13:59.095Z,80
2018-07-15T09:14:39.552Z,80
2018-07-15T09:15:19.992Z,80
2018-07-15T09:16:00.434Z,80
2018-07-15T09:16:40.829Z,80
2018-07-15T09:17:21.238Z,80
2018-07-15T09:18:01.669Z,80
2018-07-15T09:18:42.090Z,80
2018-07-15T09:19:22.523Z,80
2018-07-15T09:21:40.540Z,75
2018-07-15T09:22:20.893Z,75
2018-07-15T09:23:01.414Z,75
2018-07-15T09:23:41.984Z,75
2018-07-15T09:24:22.398Z,75
2018-07-15T09:25:02.847Z,75
2018-07-15T09:25:43.280Z,75
2018-07-15T09:26:23.695Z,75
2018-07-15T09:27:04.115Z,75
2018-07-15T09:27:44.521Z,75
2018-07-15T09:28:24.986Z,75
2018-07-15T09:29:05.749Z,75
2018-07-15T09:29:46.224Z,75
2018-07-15T09:30:26.625Z,75
2018-07-15T09:31:07.018Z,75
2018-07-15T09:31:47.394Z,75
2018-07-15T09:32:27.884Z,75
2018-07-15T09:33:08.300Z,75
2018-07-15T09:33:48.883Z,75
2018-07-15T09:34:29.269Z,75
2018-07-15T09:35:09.675Z,75
2018-07-15T09:35:50.093Z,75
2018-07-15T09:36:30.533Z,75
2018-07-15T09:37:10.989Z,75
2018-07-15T09:37:51.532Z,75
2018-07-15T09:38:31.986Z,75
2018-07-15T09:39:12.354Z,75
2018-07-15T09:39:52.807Z,75
2018-07-15T09:40:33.187Z,75
2018-07-15T09:41:13.795Z,75
2018-07-15T09:41:58.554Z,75
2018-07-15T09:42:41.478Z,75
2018-07-15T09:43:21.969Z,75
2018-07-15T09:44:02.342Z,75
2018-07-15T09:44:42.777Z,75
2018-07-15T09:45:23.184Z,70
2018-07-15T09:46:03.573Z,70
2018-07-15T09:46:44.021Z,70
2018-07-15T09:47:24.431Z,70
2018-07-15T09:48:04.823Z,70
2018-07-15T09:48:45.225Z,70
2018-07-15T09:49:46.383Z,70
2018-07-15T09:50:27.262Z,70
2018-07-15T09:51:07.714Z,70
2018-07-15T09:51:48.142Z,70
2018-07-15T09:52:28.585Z,70
2018-07-15T09:53:09.053Z,70
2018-07-15T09:53:49.446Z,70
2018-07-15T09:54:29.834Z,70
2018-07-15T09:55:10.254Z,70
2018-07-15T09:55:50.647Z,70
2018-07-15T09:58:15.855Z,70
2018-07-15T09:58:56.212Z,70
2018-07-15T09:59:36.715Z,70
2018-07-15T10:00:17.090Z,70
2018-07-15T10:00:57.875Z,70
2018-07-15T10:03:31.452Z,70
2018-07-15T10:04:12.483Z,70
2018-07-15T10:04:52.845Z,70
2018-07-15T10:43:16.823Z,65
2018-07-15T10:43:57.359Z,65
2018-07-15T10:44:37.821Z,65
2018-07-15T10:45:18.356Z,65
2018-07-15T10:45:58.727Z,65
2018-07-15T10:46:53.940Z,65
2018-07-15T10:47:34.361Z,65
2018-07-15T10:48:14.801Z,65
2018-07-15T10:48:55.638Z,60
2018-07-15T10:49:36.150Z,60
2018-07-15T10:50:16.565Z,60
2018-07-15T10:50:57.727Z,60
2018-07-15T10:51:38.057Z,60
2018-07-15T10:52:18.491Z,60
2018-07-15T10:52:59.040Z,60
2018-07-15T10:53:39.333Z,60
2018-07-15T10:54:19.871Z,60
2018-07-15T10:55:00.281Z,60
2018-07-15T10:55:40.761Z,60
2018-07-15T10:56:21.224Z,60
2018-07-15T10:57:03.071Z,60
2018-07-15T10:57:43.465Z,60
2018-07-15T10:58:24.538Z,60
2018-07-15T10:59:04.957Z,60
2018-07-15T10:59:45.554Z,60
2018-07-15T11:00:25.868Z,60
2018-07-15T11:01:07.515Z,60
2018-07-15T11:01:47.885Z,60
2018-07-15T11:02:28.363Z,60
2018-07-15T11:03:08.747Z,60
2018-07-15T11:03:49.140Z,60
2018-07-15T11:04:29.585Z,60
2018-07-15T11:05:10.007Z,60
2018-07-15T11:05:50.482Z,60
2018-07-15T11:06:30.843Z,60
2018-07-15T11:07:11.281Z,60
2018-07-15T11:07:51.995Z,60
2018-07-15T11:08:33.424Z,60
2018-07-15T11:09:13.715Z,60
2018-07-15T11:09:55.034Z,60
2018-07-15T11:10:35.467Z,60
2018-07-15T11:11:16.049Z,60
2018-07-15T11:11:56.781Z,60
2018-07-15T11:12:37.241Z,60
2018-07-15T11:13:17.602Z,60
2018-07-15T11:13:58.146Z,60
2018-07-15T11:14:38.650Z,60
2018-07-15T11:15:19.458Z,60
2018-07-15T11:15:59.798Z,60
2018-07-15T11:16:40.297Z,60
2018-07-15T11:17:20.711Z,60
2018-07-15T11:18:01.097Z,60
2018-07-15T11:18:41.514Z,60
2018-07-15T11:19:21.929Z,60
2018-07-15T11:20:02.370Z,60
2018-07-15T11:20:42.744Z,60
2018-07-15T11:21:23.296Z,60
2018-07-15T11:22:04.509Z,60
2018-07-15T11:22:44.924Z,60
2018-07-15T11:23:25.374Z,60
2018-07-15T11:24:05.786Z,60
2018-07-15T11:24:46.164Z,60
2018-07-15T11:25:26.621Z,60
2018-07-15T11:26:07.151Z,60
2018-07-15T11:26:47.487Z,60
2018-07-15T11:27:27.899Z,60
2018-07-15T11:28:08.333Z,60
2018-07-15T11:28:48.742Z,60
2018-07-15T11:29:29.165Z,60
2018-07-15T11:30:09.594Z,60
2018-07-15T11:30:50.090Z,60
2018-07-15T11:31:30.550Z,60
2018-07-15T11:32:15.094Z,60
2018-07-15T11:32:55.374Z,60
2018-07-15T11:33:35.797Z,60
2018-07-15T11:34:18.380Z,60
2018-07-15T11:35:00.990Z,60
2018-07-15T11:35:41.775Z,60
2018-07-15T11:36:22.144Z,60
2018-07-15T11:37:02.543Z,60
2018-07-15T11:39:20.611Z,60
2018-07-15T11:39:59.557Z,60
2018-07-15T11:40:39.990Z,60
2018-07-15T11:41:20.392Z,60
2018-07-15T11:42:01.163Z,60
2018-07-15T11:42:41.591Z,60
2018-07-15T11:43:22.041Z,60
2018-07-15T11:44:02.409Z,60
2018-07-15T11:44:43.839Z,60
2018-07-15T11:45:24.285Z,60
2018-07-15T11:46:04.707Z,60
2018-07-15T11:46:45.151Z,60
2018-07-15T11:47:25.573Z,60
2018-07-15T11:48:06.101Z,60
2018-07-15T11:48:46.490Z,60
2018-07-15T11:49:26.879Z,60
2018-07-15T11:50:07.270Z,60
2018-07-15T11:50:47.678Z,60
2018-07-15T11:51:28.151Z,60
2018-07-15T11:52:08.531Z,60
2018-07-15T11:52:48.914Z,60
2018-07-15T11:53:29.324Z,60
2018-07-15T11:54:09.770Z,60
2018-07-15T11:54:50.219Z,60
2018-07-15T11:55:30.615Z,60
2018-07-15T11:56:11.025Z,60
2018-07-15T11:56:51.469Z,60
2018-07-15T11:57:31.905Z,55
2018-07-15T11:58:12.351Z,55
2018-07-15T11:58:52.787Z,55
2018-07-15T11:59:33.328Z,60
2018-07-15T12:00:13.784Z,60
2018-07-15T12:00:54.604Z,60
2018-07-15T12:01:35.039Z,60
2018-07-15T12:02:15.462Z,60
2018-07-15T12:02:56.063Z,60
2018-07-15T12:03:36.625Z,60
2018-07-15T12:04:17.094Z,60
2018-07-15T12:04:57.643Z,60
2018-07-15T12:05:37.987Z,55
2018-07-15T12:06:18.686Z,55
2018-07-15T12:06:59.075Z,55
2018-07-15T12:07:39.517Z,55
2018-07-15T12:08:19.924Z,55
2018-07-15T12:09:00.330Z,55
2018-07-15T12:09:40.745Z,55
2018-07-15T12:10:21.210Z,55
2018-07-15T12:11:01.689Z,55
2018-07-15T12:11:42.076Z,55
2018-07-15T12:12:22.519Z,55
2018-07-15T12:13:02.952Z,55
2018-07-15T12:13:43.560Z,55
2018-07-15T12:14:23.952Z,55
2018-07-15T12:17:06.110Z,55
2018-07-15T12:17:46.109Z,60
2018-07-15T12:18:26.596Z,55